createdAt,value
2019-01-09T00:01:38.919Z,27.73
2019-01-09T00:04:09.252Z,26.87
2019-01-09T00:06:39.633Z,24.23
2019-01-09T00:09:13.163Z,26.27
2019-01-09T00:11:43.516Z,27.10
2019-01-09T00:14:13.848Z,27.43
2019-01-09T00:16:44.199Z,27.58
2019-01-09T00:19:14.586Z,28.15
2019-01-09T00:21:45.014Z,27.13
2019-01-09T00:24:15.420Z,26.82
2019-01-09T00:26:45.759Z,25.50
2019-01-09T00:29:16.332Z,26.07
2019-01-09T00:31:46.815Z,26.80
2019-01-09T00:34:17.264Z,24.83
2019-01-09T00:36:47.736Z,25.10
2019-01-09T00:39:18.152Z,25.77
2019-01-09T00:41:48.532Z,24.45
2019-01-09T00:44:18.915Z,24.73
2019-01-09T00:46:49.432Z,24.63
2019-01-09T00:49:19.779Z,23.90
2019-01-09T00:51:50.270Z,22.93
2019-01-09T00:54:20.613Z,24.03
2019-01-09T00:56:51.009Z,23.60
2019-01-09T00:59:21.584Z,26.23
2019-01-09T01:02:12.995Z,26.70
2019-01-09T01:05:18.499Z,26.97
2019-01-09T01:08:24.396Z,26.23
2019-01-09T01:11:19.229Z,27.87
2019-01-09T01:14:44.210Z,27.07
2019-01-09T01:17:50.814Z,27.57
2019-01-09T01:20:39.872Z,26.42
2019-01-09T01:23:34.685Z,27.32
2019-01-09T01:26:54.401Z,26.85
2019-01-09T01:30:13.221Z,27.30
2019-01-09T01:33:27.510Z,27.85
2019-01-09T01:36:26.981Z,28.20
2019-01-09T01:39:39.159Z,29.65
2019-01-09T01:42:59.228Z,31.35
2019-01-09T01:46:16.467Z,29.00
2019-01-09T01:49:13.486Z,27.60
2019-01-09T01:52:24.328Z,30.12
2019-01-09T01:55:47.473Z,29.73
2019-01-09T01:58:48.080Z,30.23
2019-01-09T02:01:50.861Z,28.42
2019-01-09T02:05:03.291Z,29.07
2019-01-09T02:08:00.210Z,28.17
2019-01-09T02:11:26.299Z,28.47
2019-01-09T02:14:38.624Z,27.30
2019-01-09T02:18:13.569Z,27.42
2019-01-09T02:21:16.728Z,27.20
2019-01-09T02:24:36.525Z,26.87
2019-01-09T02:27:40.372Z,27.80
2019-01-09T02:30:50.060Z,26.70
2019-01-09T02:33:20.467Z,24.83
2019-01-09T02:35:50.864Z,27.00
2019-01-09T02:38:21.239Z,28.17
2019-01-09T02:40:52.085Z,28.30
2019-01-09T02:43:22.432Z,30.20
2019-01-09T02:45:52.821Z,30.40
2019-01-09T02:48:23.178Z,30.12
2019-01-09T02:50:53.480Z,31.27
2019-01-09T02:53:23.847Z,29.17
2019-01-09T02:55:54.198Z,31.52
2019-01-09T02:58:24.536Z,33.00
2019-01-09T03:00:54.923Z,33.43
2019-01-09T03:03:25.283Z,31.85
2019-01-09T03:05:55.638Z,33.37
2019-01-09T03:08:26.082Z,34.50
2019-01-09T03:10:56.440Z,34.63
2019-01-09T03:13:26.772Z,34.67
2019-01-09T03:15:58.101Z,34.95
2019-01-09T03:18:28.458Z,35.17
2019-01-09T03:20:58.791Z,36.17
2019-01-09T03:23:29.130Z,37.73
2019-01-09T03:25:59.473Z,35.90
2019-01-09T03:28:29.803Z,37.50
2019-01-09T03:31:00.310Z,37.07
2019-01-09T03:33:30.687Z,37.03
2019-01-09T03:36:01.066Z,36.10
2019-01-09T03:38:31.476Z,37.80
2019-01-09T03:41:01.886Z,38.17
2019-01-09T03:43:32.262Z,40.90
2019-01-09T03:46:02.639Z,39.33
2019-01-09T03:48:33.040Z,41.42
2019-01-09T03:51:03.429Z,40.60
2019-01-09T03:53:33.779Z,39.23
2019-01-09T03:56:04.092Z,39.43
2019-01-09T03:58:34.466Z,38.30
2019-01-09T04:01:04.816Z,39.83
2019-01-09T04:03:35.139Z,38.67
2019-01-09T04:06:05.515Z,38.20
2019-01-09T04:08:35.938Z,38.43
2019-01-09T04:11:06.270Z,37.53
2019-01-09T04:13:36.627Z,38.13
2019-01-09T04:16:06.926Z,39.30
2019-01-09T04:18:37.224Z,35.57
2019-01-09T04:21:07.565Z,40.80
2019-01-09T04:23:37.893Z,37.70
2019-01-09T04:26:08.271Z,37.00
2019-01-09T04:28:38.886Z,37.77
2019-01-09T04:31:09.319Z,40.13
2019-01-09T04:33:39.641Z,40.30
2019-01-09T04:36:10.066Z,39.07
2019-01-09T04:38:40.424Z,40.77
2019-01-09T04:41:10.850Z,38.63
2019-01-09T04:43:41.212Z,40.13
2019-01-09T04:46:11.622Z,38.90
2019-01-09T04:48:41.962Z,38.87
2019-01-09T04:51:12.286Z,40.13
2019-01-09T04:53:43.900Z,37.70
2019-01-09T04:56:14.272Z,39.33
2019-01-09T04:58:44.573Z,40.13
2019-01-09T05:01:14.917Z,38.63
2019-01-09T05:03:45.249Z,41.23
2019-01-09T05:06:15.580Z,39.10
2019-01-09T05:08:45.925Z,45.77
2019-01-09T05:11:16.303Z,45.10
2019-01-09T05:13:46.673Z,41.37
2019-01-09T05:16:17.097Z,40.20
2019-01-09T05:18:47.462Z,41.43
2019-01-09T05:21:17.846Z,38.77
2019-01-09T05:23:48.206Z,38.80
2019-01-09T05:26:18.620Z,38.43
2019-01-09T05:28:48.983Z,36.80
2019-01-09T05:31:19.337Z,37.60
2019-01-09T05:33:49.666Z,37.07
2019-01-09T05:36:19.967Z,36.47
2019-01-09T05:38:50.321Z,37.10
2019-01-09T05:41:20.713Z,36.53
2019-01-09T05:43:51.050Z,35.53
2019-01-09T05:46:21.437Z,35.70
2019-01-09T05:48:53.488Z,36.33
2019-01-09T05:51:24.107Z,37.23
2019-01-09T05:53:54.444Z,36.47
2019-01-09T05:56:35.569Z,37.83
2019-01-09T05:59:23.022Z,36.90
2019-01-09T06:01:58.961Z,36.83
2019-01-09T06:04:29.303Z,40.43
2019-01-09T06:07:03.532Z,45.70
2019-01-09T06:09:33.890Z,40.93
2019-01-09T06:12:04.506Z,39.87
2019-01-09T06:14:50.351Z,38.33
2019-01-09T06:17:31.807Z,38.57
2019-01-09T06:20:48.833Z,36.83
2019-01-09T06:23:56.840Z,32.30
2019-01-09T06:26:31.004Z,36.20
2019-01-09T06:29:23.176Z,45.53
2019-01-09T06:32:04.745Z,42.30
2019-01-09T06:34:38.536Z,32.47
2019-01-09T06:37:09.221Z,29.67
2019-01-09T06:40:06.139Z,30.73
2019-01-09T06:42:36.225Z,33.33
2019-01-09T06:45:07.003Z,32.13
2019-01-09T06:47:37.347Z,31.17
2019-01-09T06:50:11.727Z,31.73
2019-01-09T06:52:42.103Z,32.23
2019-01-09T06:55:16.543Z,31.10
2019-01-09T06:57:47.009Z,31.20
2019-01-09T07:00:20.830Z,31.20
2019-01-09T07:02:51.255Z,31.77
2019-01-09T07:05:21.640Z,32.63
2019-01-09T07:07:52.023Z,30.73
2019-01-09T07:10:22.367Z,43.70
2019-01-09T07:12:52.764Z,37.87
2019-01-09T07:15:23.166Z,31.77
2019-01-09T07:17:53.657Z,33.47
2019-01-09T07:20:24.439Z,30.50
2019-01-09T07:22:54.853Z,32.27
2019-01-09T07:25:25.269Z,29.63
2019-01-09T07:27:55.638Z,30.50
2019-01-09T07:30:26.039Z,28.50
2019-01-09T07:32:56.395Z,27.27
2019-01-09T07:35:26.918Z,33.03
2019-01-09T07:37:57.835Z,29.27
2019-01-09T07:40:28.207Z,29.17
2019-01-09T07:42:58.578Z,36.17
2019-01-09T07:45:28.971Z,28.03
2019-01-09T07:47:59.284Z,27.47
2019-01-09T07:50:29.691Z,32.97
2019-01-09T07:53:00.202Z,27.37
2019-01-09T07:55:30.790Z,28.30
2019-01-09T07:58:01.133Z,31.80
2019-01-09T08:00:31.523Z,30.90
2019-01-09T08:03:01.905Z,27.47
2019-01-09T08:05:32.270Z,27.20
2019-01-09T08:08:02.710Z,26.47
2019-01-09T08:10:33.094Z,28.73
2019-01-09T08:13:03.477Z,27.00
2019-01-09T08:15:33.933Z,28.77
2019-01-09T08:18:04.303Z,30.73
2019-01-09T08:20:34.602Z,27.57
2019-01-09T08:23:04.990Z,28.37
2019-01-09T08:25:35.514Z,26.33
2019-01-09T08:28:05.914Z,25.87
2019-01-09T08:30:36.295Z,28.53
2019-01-09T08:33:06.686Z,26.43
2019-01-09T08:35:37.058Z,27.83
2019-01-09T08:38:07.479Z,27.53
2019-01-09T08:40:38.044Z,27.03
2019-01-09T08:43:08.484Z,28.40
2019-01-09T08:45:38.884Z,27.10
2019-01-09T08:48:09.322Z,28.03
2019-01-09T08:50:40.050Z,31.53
2019-01-09T08:53:10.477Z,30.53
2019-01-09T08:55:41.229Z,29.37
2019-01-09T08:58:11.578Z,31.03
2019-01-09T09:00:42.135Z,29.43
2019-01-09T09:03:12.537Z,28.00
2019-01-09T09:05:42.907Z,27.53
2019-01-09T09:08:14.119Z,26.60
2019-01-09T09:10:44.467Z,25.80
2019-01-09T09:13:44.142Z,26.67
2019-01-09T09:16:14.523Z,25.90
2019-01-09T09:18:44.950Z,25.93
2019-01-09T09:21:17.888Z,27.47
2019-01-09T09:23:49.543Z,26.40
2019-01-09T09:26:27.423Z,26.30
2019-01-09T09:29:00.304Z,27.07
2019-01-09T09:31:32.157Z,26.23
2019-01-09T09:34:06.508Z,25.90
2019-01-09T09:36:37.910Z,27.37
2019-01-09T09:39:12.914Z,24.40
2019-01-09T09:41:44.393Z,24.73
2019-01-09T09:44:16.617Z,25.70
2019-01-09T09:46:47.995Z,24.63
2019-01-09T09:49:20.726Z,25.50
2019-01-09T09:51:51.740Z,21.80
2019-01-09T09:54:23.487Z,25.57
2019-01-09T09:56:53.927Z,23.17
2019-01-09T09:59:24.293Z,25.60
2019-01-09T10:01:54.891Z,25.90
2019-01-09T10:04:25.384Z,27.33
2019-01-09T10:06:55.818Z,24.37
2019-01-09T10:09:26.255Z,27.13
2019-01-09T10:11:56.727Z,24.87
2019-01-09T10:14:27.131Z,23.73
2019-01-09T10:16:57.616Z,25.07
2019-01-09T10:19:28.017Z,25.47
2019-01-09T10:21:58.384Z,25.43
2019-01-09T10:24:28.796Z,23.83
2019-01-09T10:26:59.182Z,22.83
2019-01-09T10:29:29.617Z,21.80
2019-01-09T10:32:00.081Z,23.90
2019-01-09T10:34:30.918Z,24.10
2019-01-09T10:37:01.312Z,23.27
2019-01-09T10:39:31.640Z,24.70
2019-01-09T10:42:02.143Z,23.73
2019-01-09T10:44:34.568Z,23.57
2019-01-09T10:47:04.812Z,22.63
2019-01-09T10:49:35.200Z,24.80
2019-01-09T10:52:05.727Z,25.43
2019-01-09T10:54:36.131Z,26.30
2019-01-09T10:57:06.675Z,24.20
2019-01-09T10:59:37.042Z,24.47
2019-01-09T11:02:07.403Z,24.77
2019-01-09T11:04:37.712Z,23.03
2019-01-09T11:07:08.558Z,24.40
2019-01-09T11:09:38.896Z,24.17
2019-01-09T11:12:09.387Z,23.33
2019-01-09T11:14:39.793Z,23.30
2019-01-09T11:17:10.253Z,23.23
2019-01-09T11:19:40.612Z,23.67
2019-01-09T11:22:10.994Z,23.17
2019-01-09T11:24:41.566Z,23.77
2019-01-09T11:27:11.997Z,23.23
2019-01-09T11:29:42.427Z,21.93
2019-01-09T11:32:12.819Z,22.50
2019-01-09T11:34:43.219Z,22.40
2019-01-09T11:37:13.621Z,22.80
2019-01-09T11:39:43.977Z,22.93
2019-01-09T11:42:14.356Z,21.97
2019-01-09T11:44:44.767Z,20.87
2019-01-09T11:47:15.173Z,21.63
2019-01-09T11:49:46.632Z,21.83
2019-01-09T11:52:17.067Z,20.37
2019-01-09T11:54:47.479Z,18.60
2019-01-09T11:57:17.875Z,17.90
2019-01-09T11:59:48.245Z,18.93
2019-01-09T12:02:22.224Z,21.00
2019-01-09T12:04:50.788Z,20.33
2019-01-09T12:07:21.138Z,20.23
2019-01-09T12:09:51.482Z,20.43
2019-01-09T12:12:21.868Z,19.77
2019-01-09T12:14:52.218Z,18.07
2019-01-09T12:17:22.566Z,18.30
2019-01-09T12:19:53.172Z,14.73
2019-01-09T12:22:23.740Z,14.97
2019-01-09T12:24:54.216Z,15.73
2019-01-09T12:27:24.582Z,15.07
2019-01-09T12:29:54.934Z,15.80
2019-01-09T12:32:25.405Z,15.77
2019-01-09T12:34:55.818Z,15.67
2019-01-09T12:37:26.303Z,13.27
2019-01-09T12:39:56.726Z,14.03
2019-01-09T12:42:30.463Z,11.90
2019-01-09T12:45:06.779Z,12.73
2019-01-09T12:47:37.087Z,10.93
2019-01-09T12:50:09.109Z,12.47
2019-01-09T12:52:39.637Z,12.60
2019-01-09T12:55:10.305Z,13.03
2019-01-09T12:57:40.706Z,14.63
2019-01-09T13:00:22.826Z,12.37
2019-01-09T13:02:53.241Z,14.30
2019-01-09T13:05:23.816Z,14.40
2019-01-09T13:07:54.241Z,14.23
2019-01-09T13:10:24.710Z,15.60
2019-01-09T13:12:55.098Z,17.60
2019-01-09T13:15:25.449Z,16.33
2019-01-09T13:17:55.953Z,17.97
2019-01-09T13:20:26.352Z,15.83
2019-01-09T13:22:56.777Z,17.43
2019-01-09T13:25:27.292Z,37.53
2019-01-09T13:27:57.685Z,26.93
2019-01-09T13:30:28.124Z,18.07
2019-01-09T13:32:58.460Z,19.27
2019-01-09T13:35:28.844Z,19.07
2019-01-09T13:37:59.215Z,18.20
2019-01-09T13:40:29.649Z,18.63
2019-01-09T13:42:59.991Z,18.53
2019-01-09T13:45:30.358Z,25.83
2019-01-09T13:48:00.784Z,22.17
2019-01-09T13:50:31.166Z,21.13
2019-01-09T13:53:01.562Z,20.43
2019-01-09T13:55:31.943Z,21.20
2019-01-09T13:58:02.357Z,21.63
2019-01-09T14:00:32.864Z,21.43
2019-01-09T14:03:03.284Z,22.40
2019-01-09T14:05:33.629Z,23.20
2019-01-09T14:08:04.421Z,20.77
2019-01-09T14:10:34.900Z,20.67
2019-01-09T14:13:05.354Z,18.23
2019-01-09T14:15:35.718Z,18.67
2019-01-09T14:18:06.166Z,17.83
2019-01-09T14:20:36.465Z,16.80
2019-01-09T14:23:07.089Z,16.97
2019-01-09T14:25:37.496Z,17.43
2019-01-09T14:28:07.881Z,15.67
2019-01-09T14:30:38.529Z,15.83
2019-01-09T14:33:08.967Z,14.53
2019-01-09T14:35:39.401Z,15.73
2019-01-09T14:38:09.844Z,15.37
2019-01-09T14:40:40.231Z,14.10
2019-01-09T14:43:10.541Z,14.00
2019-01-09T14:45:40.888Z,14.87
2019-01-09T14:48:11.304Z,14.37
2019-01-09T14:50:42.220Z,15.17
2019-01-09T14:53:12.879Z,15.40
2019-01-09T14:55:43.319Z,15.60
2019-01-09T14:58:13.715Z,15.00
2019-01-09T15:00:44.115Z,16.47
2019-01-09T15:03:14.476Z,16.63
2019-01-09T15:05:44.896Z,16.87
2019-01-09T15:08:15.192Z,16.33
2019-01-09T15:10:45.620Z,16.87
2019-01-09T15:13:16.016Z,16.83
2019-01-09T15:15:46.704Z,17.70
2019-01-09T15:18:17.059Z,19.43
2019-01-09T15:20:47.431Z,18.90
2019-01-09T15:23:17.810Z,17.33
2019-01-09T15:25:49.144Z,19.00
2019-01-09T15:28:19.620Z,17.43
2019-01-09T15:30:50.637Z,17.37
2019-01-09T15:33:21.123Z,17.87
2019-01-09T15:35:51.710Z,17.53
2019-01-09T15:38:22.087Z,20.00
2019-01-09T15:40:52.465Z,18.40
2019-01-09T15:43:22.815Z,17.40
2019-01-09T15:45:53.208Z,19.50
2019-01-09T15:48:23.541Z,18.37
2019-01-09T15:50:53.854Z,18.53
2019-01-09T15:53:24.215Z,20.07
2019-01-09T15:55:54.526Z,20.20
2019-01-09T15:58:24.923Z,18.40
2019-01-09T16:00:57.988Z,21.23
2019-01-09T16:03:28.407Z,20.57
2019-01-09T16:05:58.769Z,19.60
2019-01-09T16:08:29.117Z,19.57
2019-01-09T16:10:59.464Z,19.07
2019-01-09T16:13:29.809Z,17.50
2019-01-09T16:16:00.160Z,18.60
2019-01-09T16:18:30.491Z,18.37
2019-01-09T16:21:00.874Z,18.10
2019-01-09T16:23:31.244Z,17.00
2019-01-09T16:26:01.619Z,16.50
2019-01-09T16:28:31.990Z,17.03
2019-01-09T16:31:26.890Z,16.37
2019-01-09T16:33:57.223Z,17.10
2019-01-09T16:36:28.684Z,17.07
2019-01-09T16:38:59.088Z,16.20
2019-01-09T16:41:29.466Z,17.57
2019-01-09T16:43:59.772Z,18.13
2019-01-09T16:46:30.128Z,18.60
2019-01-09T16:49:00.467Z,20.30
2019-01-09T16:51:30.798Z,22.40
2019-01-09T16:54:01.174Z,21.87
2019-01-09T16:56:31.551Z,21.77
2019-01-09T16:59:01.891Z,21.63
2019-01-09T17:01:32.306Z,22.27
2019-01-09T17:04:04.959Z,22.30
2019-01-09T17:06:35.257Z,22.43
2019-01-09T17:09:08.697Z,19.97
2019-01-09T17:11:38.921Z,21.37
2019-01-09T17:14:09.263Z,21.03
2019-01-09T17:16:39.673Z,22.30
2019-01-09T17:19:10.255Z,21.83
2019-01-09T17:21:40.595Z,21.03
2019-01-09T17:24:10.932Z,19.87
2019-01-09T17:26:41.331Z,19.17
2019-01-09T17:29:11.708Z,20.40
2019-01-09T17:31:42.088Z,19.10
2019-01-09T17:34:12.498Z,18.50
2019-01-09T17:36:42.922Z,19.40
2019-01-09T17:39:13.307Z,19.40
2019-01-09T17:41:43.849Z,18.00
2019-01-09T17:44:14.195Z,18.50
2019-01-09T17:46:44.527Z,19.40
2019-01-09T17:49:14.876Z,18.37
2019-01-09T17:51:45.179Z,20.67
2019-01-09T17:54:15.558Z,22.47
2019-01-09T17:56:45.974Z,21.73
2019-01-09T17:59:16.240Z,21.13
2019-01-09T18:01:46.568Z,21.63
2019-01-09T18:04:17.086Z,23.20
2019-01-09T18:06:47.597Z,22.80
2019-01-09T18:09:17.929Z,25.93
2019-01-09T18:11:48.300Z,27.53
2019-01-09T18:14:18.998Z,28.30
2019-01-09T18:16:49.331Z,28.80
2019-01-09T18:19:19.712Z,26.50
2019-01-09T18:21:50.126Z,26.33
2019-01-09T18:24:20.500Z,28.13
2019-01-09T18:26:51.007Z,27.83
2019-01-09T18:29:21.345Z,27.90
2019-01-09T18:31:59.685Z,27.83
2019-01-09T18:34:37.666Z,28.07
2019-01-09T18:37:35.224Z,28.73
2019-01-09T18:41:07.341Z,30.20
2019-01-09T18:43:44.445Z,35.70
2019-01-09T18:46:52.238Z,38.83
2019-01-09T18:50:12.885Z,38.23
2019-01-09T18:52:51.378Z,36.53
2019-01-09T18:55:21.747Z,35.80
2019-01-09T18:57:52.089Z,37.13
2019-01-09T19:00:24.291Z,37.47
2019-01-09T19:02:54.758Z,37.23
2019-01-09T19:05:25.268Z,37.83
2019-01-09T19:07:55.642Z,40.73
2019-01-09T19:10:26.210Z,37.13
2019-01-09T19:12:56.635Z,37.73
2019-01-09T19:15:27.012Z,38.63
2019-01-09T19:17:57.390Z,37.23
2019-01-09T19:20:27.827Z,36.20
2019-01-09T19:22:58.232Z,38.83
2019-01-09T19:25:28.782Z,37.67
2019-01-09T19:27:59.124Z,36.10
2019-01-09T19:30:31.145Z,38.63
2019-01-09T19:33:01.800Z,38.33
2019-01-09T19:35:32.234Z,39.77
2019-01-09T19:38:02.591Z,39.60
2019-01-09T19:40:32.923Z,39.13
2019-01-09T19:43:03.219Z,38.80
2019-01-09T19:45:34.027Z,38.97
2019-01-09T19:48:04.768Z,38.00
2019-01-09T19:50:42.445Z,37.43
2019-01-09T19:53:07.503Z,38.53
2019-01-09T19:55:38.002Z,37.97
2019-01-09T19:58:08.475Z,38.87
2019-01-09T20:00:38.880Z,38.17
2019-01-09T20:03:09.312Z,38.93
2019-01-09T20:05:39.792Z,39.57
2019-01-09T20:08:10.299Z,39.60
2019-01-09T20:10:40.732Z,39.20
2019-01-09T20:13:11.112Z,40.30
2019-01-09T20:15:41.398Z,40.33
2019-01-09T20:18:11.974Z,39.07
2019-01-09T20:20:42.374Z,38.83
2019-01-09T20:23:12.805Z,38.83
2019-01-09T20:25:43.172Z,39.53
2019-01-09T20:28:13.570Z,39.30
2019-01-09T20:30:44.050Z,38.93
2019-01-09T20:33:14.346Z,41.30
2019-01-09T20:35:44.664Z,42.87
2019-01-09T20:38:15.120Z,39.27
2019-01-09T20:40:45.427Z,43.93
2019-01-09T20:43:15.773Z,41.40
2019-01-09T20:45:46.348Z,41.87
2019-01-09T20:48:16.746Z,39.70
2019-01-09T20:50:47.174Z,40.97
2019-01-09T20:53:17.641Z,42.17
2019-01-09T20:55:48.010Z,41.07
2019-01-09T20:58:18.499Z,41.33
2019-01-09T21:00:49.037Z,37.93
2019-01-09T21:03:19.418Z,38.23
2019-01-09T21:05:51.855Z,38.80
2019-01-09T21:08:22.264Z,37.60
2019-01-09T21:10:52.764Z,37.23
2019-01-09T21:13:23.370Z,38.67
2019-01-09T21:15:53.691Z,36.47
2019-01-09T21:18:23.987Z,34.63
2019-01-09T21:20:54.297Z,36.30
2019-01-09T21:23:24.679Z,34.47
2019-01-09T21:25:55.256Z,34.63
2019-01-09T21:28:25.597Z,34.17
2019-01-09T21:30:56.067Z,35.33
2019-01-09T21:33:26.375Z,34.27
2019-01-09T21:35:56.719Z,32.27
2019-01-09T21:38:27.114Z,28.47
2019-01-09T21:40:57.487Z,29.70
2019-01-09T21:43:27.812Z,31.27
2019-01-09T21:45:58.186Z,31.77
2019-01-09T21:48:28.587Z,32.90
2019-01-09T21:50:59.019Z,34.07
2019-01-09T21:53:29.430Z,33.07
2019-01-09T21:55:59.795Z,33.60
2019-01-09T21:58:30.175Z,31.87
2019-01-09T22:01:00.530Z,32.33
2019-01-09T22:03:30.934Z,33.73
2019-01-09T22:06:01.357Z,33.07
2019-01-09T22:08:31.693Z,33.13
2019-01-09T22:11:01.995Z,34.30
2019-01-09T22:13:32.384Z,32.13
2019-01-09T22:16:02.800Z,33.03
2019-01-09T22:18:33.278Z,34.17
2019-01-09T22:21:03.711Z,33.60
2019-01-09T22:23:34.141Z,31.53
2019-01-09T22:26:04.786Z,32.37
2019-01-09T22:28:35.114Z,33.07
2019-01-09T22:31:05.662Z,32.53
2019-01-09T22:33:35.994Z,33.70
2019-01-09T22:36:06.467Z,34.37
2019-01-09T22:38:36.807Z,36.37
2019-01-09T22:41:07.174Z,36.37
2019-01-09T22:43:37.477Z,36.87
2019-01-09T22:46:07.919Z,36.03
2019-01-09T22:48:38.257Z,36.27
2019-01-09T22:51:08.586Z,35.80
2019-01-09T22:53:39.008Z,37.27
2019-01-09T22:56:09.346Z,37.03
2019-01-09T22:58:39.818Z,37.53
2019-01-09T23:01:33.459Z,38.73
2019-01-09T23:04:06.364Z,35.43
2019-01-09T23:06:57.798Z,38.37
2019-01-09T23:09:48.266Z,35.93
2019-01-09T23:12:21.378Z,35.43
2019-01-09T23:14:51.396Z,35.37
2019-01-09T23:17:21.635Z,35.43
2019-01-09T23:19:51.908Z,36.10
2019-01-09T23:22:22.180Z,32.97
2019-01-09T23:24:52.750Z,33.27
2019-01-09T23:27:22.972Z,33.87
2019-01-09T23:29:53.241Z,33.87
2019-01-09T23:32:23.471Z,34.87
2019-01-09T23:34:53.736Z,33.43
2019-01-09T23:37:23.975Z,32.80
2019-01-09T23:39:54.345Z,33.57
2019-01-09T23:42:30.269Z,36.00
2019-01-09T23:44:56.547Z,35.87
2019-01-09T23:47:26.774Z,37.13
2019-01-09T23:49:57.046Z,36.83
2019-01-09T23:52:27.270Z,35.27
2019-01-09T23:54:57.544Z,34.53
2019-01-09T23:57:27.775Z,32.33
2019-01-09T23:59:58.015Z,34.13
